Airfield :







YOU CAN JOIN US ON...

 
LOGIN :

Register | Disclaimer

   EN    FR    IT 

 









Legend :    VFR   Marginal VFR   IFR   Intensive IFR   Very Intensive IFR
Visi :
Ceiling :
>= 8 km
>= 3000ft
5 to 8 km
1000 to 3000 ft
1500m to 5 km
500 to 1000 ft
800 to 1500m
200 to 500 ft
< 800m
< 200 ft
Symbols :   Thunderstorms  Fog  Heavy snow  Heavy precipitations  Wind > 20 kt






- Airport Elevation : 203 ft
- IATA code : YQY


CYQY - Sydney

CURRENT METAR :
  • 192000Z 26014G19KT 15SM FEW018 FEW200 SCT250 26/14 A2988 RMK CU1CC2CI1 CU TR SLP121 DENSITY ALT 1600FT

EXPIRED METARs :
  • 191900Z 25014G20KT 15SM FEW020 FEW200 SCT240 25/15 A2988 RMK CU1CC1CI2 CU TR SLP120 DENSITY ALT 1500FT
  • 191800Z 26011G18KT 15SM FEW020 SCT210 BKN240 24/15 A2988 RMK CU1CC3CI4 CU TR SLP121 DENSITY ALT 1400FT
  • 191700Z 26010G16KT 15SM FEW016 SCT150 BKN180 BKN200 24/17 A2987 RMK CF1AC2AS2CI2 SLP117 DENSITY ALT 1400FT
  • 191600Z 26013KT 15SM FEW019 SCT150 BKN180 BKN200 24/16 A2987 RMK CU1AC2AC2CS2 SLP117 DENSITY ALT 1400FT

TAF TAF CYQY
Valid from the 19 at 18:00 until the 20 at 06:00 UTC


191740Z 1918/2006 25010G20KT P6SM FEW020
BECMG 1920/1922 29007KT FEW030
FM200300 23005KT P6SM SKC RMK NXT FCST BY 200000Z
CZQM FIR / North America



MET'MAP, your aeronautical weather chart ! - Copyright ORBIFLY December 2007 - Disclaimer

ORBIFLY MET'MAP TEAM :

Programming & Development : Alexandra Zaïnal
Original concept : Baudouin d'Aumeries
Technical & hardware support : Manuel Goepfert
Assistance : Marc-Olivier Méhu




SOURCES & CREDITS :

   NOAA